Time;durP1;ratioP1;P1;durP2;ratioP2;P2;SDS_P1;SDS_P2;PMS_P1;PMS_P2;Temp;Humidity;BMP_temperature;BMP_pressure;BME280_temperature;BME280_humidity;BME280_pressure;Samples;Min_cycle;Max_cycle;Signal;HPM_P1;HPM_P2
2023/08/25 00:01:16;;;;;;;2.87;1.67;;;;;;;;;;4898051;29;20449;-67
2023/08/25 00:03:43;;;;;;;3.60;1.67;;;;;;;;;;4897414;29;20465;-68
2023/08/25 00:06:10;;;;;;;3.37;1.47;;;;;;;;;;4897468;29;20469;-67
2023/08/25 00:08:37;;;;;;;2.63;1.33;;;;;;;;;;4889519;29;20466;-67
2023/08/25 00:11:05;;;;;;;2.67;1.10;;;;;;;;;;4897424;29;20473;-67
2023/08/25 00:13:35;;;;;;;2.60;1.37;;;;;;;;;;4884754;29;20855;-67
2023/08/25 00:16:02;;;;;;;2.17;1.40;;;;;;;;;;4897447;29;20442;-68
2023/08/25 00:18:31;;;;;;;2.20;1.30;;;;;;;;;;4896600;29;20541;-67
2023/08/25 00:20:58;;;;;;;3.00;1.50;;;;;;;;;;4897885;29;20453;-67
2023/08/25 00:23:25;;;;;;;2.20;1.20;;;;;;;;;;4897586;29;20464;-67
2023/08/25 00:25:53;;;;;;;2.37;1.33;;;;;;;;;;4895904;29;20460;-67
2023/08/25 00:28:20;;;;;;;2.13;1.17;;;;;;;;;;4891950;29;20465;-67
2023/08/25 00:30:47;;;;;;;2.80;1.50;;;;;;;;;;4889443;29;20533;-68
2023/08/25 00:33:15;;;;;;;3.80;1.30;;;;;;;;;;4896701;29;20859;-67
2023/08/25 00:35:44;;;;;;;2.63;1.77;;;;;;;;;;4897193;29;20450;-68
2023/08/25 00:38:11;;;;;;;3.93;1.93;;;;;;;;;;4884442;29;20847;-68
2023/08/25 00:40:39;;;;;;;4.13;1.43;;;;;;;;;;4897587;29;20944;-67
2023/08/25 00:43:06;;;;;;;2.70;1.40;;;;;;;;;;4893147;29;20477;-67
2023/08/25 00:45:34;;;;;;;2.73;1.50;;;;;;;;;;4889875;29;20454;-67
2023/08/25 00:48:02;;;;;;;2.33;1.27;;;;;;;;;;4896716;29;20956;-67
2023/08/25 00:50:29;;;;;;;7.17;1.53;;;;;;;;;;4896453;29;20470;-67
2023/08/25 00:52:58;;;;;;;2.70;1.50;;;;;;;;;;4896664;29;20457;-68
2023/08/25 00:55:25;;;;;;;2.20;1.40;;;;;;;;;;4897143;29;20464;-67
2023/08/25 00:57:53;;;;;;;2.87;1.77;;;;;;;;;;4893426;29;20956;-67
2023/08/25 01:00:20;;;;;;;2.93;1.20;;;;;;;;;;4894408;29;20493;-67
2023/08/25 01:02:47;;;;;;;2.60;1.90;;;;;;;;;;4895298;29;20470;-67
2023/08/25 01:05:16;;;;;;;3.30;1.37;;;;;;;;;;4892677;29;20454;-67
2023/08/25 01:07:43;;;;;;;2.20;1.43;;;;;;;;;;4892121;29;20449;-67
2023/08/25 01:10:12;;;;;;;2.80;1.50;;;;;;;;;;4894864;29;20488;-68
2023/08/25 01:12:46;;;;;;;2.70;1.13;;;;;;;;;;4895417;29;20525;-67
2023/08/25 01:15:14;;;;;;;6.73;1.60;;;;;;;;;;4896306;29;20457;-67
2023/08/25 01:17:44;;;;;;;2.87;1.40;;;;;;;;;;4896738;29;20652;-67
2023/08/25 01:20:14;;;;;;;3.20;1.63;;;;;;;;;;4896355;29;20492;-68
2023/08/25 01:22:46;;;;;;;2.10;1.00;;;;;;;;;;4886092;29;20525;-67
2023/08/25 01:25:19;;;;;;;2.60;1.40;;;;;;;;;;4895230;29;20445;-68
2023/08/25 01:27:47;;;;;;;2.73;1.33;;;;;;;;;;4894831;29;20468;-67
2023/08/25 01:30:14;;;;;;;2.37;1.50;;;;;;;;;;4895676;29;20863;-68
2023/08/25 01:32:41;;;;;;;2.10;1.27;;;;;;;;;;4895341;29;20465;-68
2023/08/25 01:35:09;;;;;;;3.20;1.50;;;;;;;;;;4894417;29;20469;-67
2023/08/25 01:37:40;;;;;;;2.33;1.53;;;;;;;;;;4895236;29;20469;-68
2023/08/25 01:40:10;;;;;;;3.27;1.50;;;;;;;;;;4899440;29;21000;-66
2023/08/25 01:42:40;;;;;;;3.37;1.70;;;;;;;;;;4899127;29;20465;-67
2023/08/25 01:45:09;;;;;;;2.80;1.63;;;;;;;;;;4898718;29;20480;-67
2023/08/25 01:47:36;;;;;;;2.03;1.13;;;;;;;;;;4900324;29;20465;-68
2023/08/25 01:50:03;;;;;;;2.90;1.10;;;;;;;;;;4900525;29;20466;-67
2023/08/25 01:52:31;;;;;;;2.23;1.10;;;;;;;;;;4899361;29;20473;-68
2023/08/25 01:54:58;;;;;;;2.53;1.43;;;;;;;;;;4899409;29;21058;-67
2023/08/25 01:57:25;;;;;;;2.83;1.47;;;;;;;;;;4895127;29;20458;-67
2023/08/25 01:59:53;;;;;;;2.27;1.17;;;;;;;;;;4896150;29;20500;-67
2023/08/25 02:02:20;;;;;;;2.27;1.20;;;;;;;;;;4898523;29;20956;-67
2023/08/25 02:04:47;;;;;;;2.70;1.33;;;;;;;;;;4901146;29;20448;-67
2023/08/25 02:07:14;;;;;;;2.13;1.20;;;;;;;;;;4895332;29;20470;-67
2023/08/25 02:09:42;;;;;;;4.13;1.63;;;;;;;;;;4891544;29;20492;-68
2023/08/25 02:14:37;;;;;;;2.17;1.20;;;;;;;;;;4915784;29;21063;-67
2023/08/25 02:17:06;;;;;;;2.60;1.50;;;;;;;;;;4917634;29;20848;-67
2023/08/25 02:19:34;;;;;;;2.40;1.53;;;;;;;;;;4916503;29;20485;-67
2023/08/25 02:22:01;;;;;;;3.07;1.50;;;;;;;;;;4917383;29;20963;-67
2023/08/25 02:24:30;;;;;;;3.47;1.30;;;;;;;;;;4917686;29;20452;-67
2023/08/25 02:26:57;;;;;;;2.70;1.40;;;;;;;;;;4917010;29;20899;-67
2023/08/25 02:29:25;;;;;;;2.33;1.47;;;;;;;;;;4916495;29;20480;-67
2023/08/25 02:31:52;;;;;;;1.80;1.10;;;;;;;;;;4911747;29;20547;-68
2023/08/25 02:34:20;;;;;;;7.13;1.97;;;;;;;;;;4917072;29;20449;-68
2023/08/25 02:36:47;;;;;;;2.33;1.20;;;;;;;;;;4916608;29;20838;-68
2023/08/25 02:39:14;;;;;;;2.47;1.67;;;;;;;;;;4915739;29;20865;-69
2023/08/25 02:41:41;;;;;;;3.50;1.40;;;;;;;;;;4912310;29;20464;-67
2023/08/25 02:44:09;;;;;;;6.20;2.13;;;;;;;;;;4915204;29;20939;-68
2023/08/25 02:46:37;;;;;;;2.63;1.47;;;;;;;;;;4914103;29;20548;-68
2023/08/25 02:49:04;;;;;;;2.97;1.43;;;;;;;;;;4916912;29;20472;-68
2023/08/25 02:51:33;;;;;;;3.10;1.53;;;;;;;;;;4916636;29;21060;-67
2023/08/25 02:54:00;;;;;;;2.37;1.37;;;;;;;;;;4914760;29;20460;-68
2023/08/25 02:56:27;;;;;;;4.50;1.47;;;;;;;;;;4915215;29;20503;-68
2023/08/25 02:58:54;;;;;;;2.63;1.37;;;;;;;;;;4913000;29;20484;-68
2023/08/25 03:01:21;;;;;;;2.33;1.60;;;;;;;;;;4913861;29;20639;-67
2023/08/25 03:03:48;;;;;;;3.10;1.47;;;;;;;;;;4917303;29;20479;-67
2023/08/25 03:06:17;;;;;;;6.40;1.47;;;;;;;;;;4917367;29;20529;-67
2023/08/25 03:08:46;;;;;;;2.13;1.20;;;;;;;;;;4915031;29;20484;-67
2023/08/25 03:11:13;;;;;;;2.30;1.30;;;;;;;;;;4916809;29;20480;-67
2023/08/25 03:13:40;;;;;;;4.70;3.13;;;;;;;;;;4915250;29;20472;-67
2023/08/25 03:16:07;;;;;;;1.90;1.10;;;;;;;;;;4916406;29;20870;-67
2023/08/25 03:18:37;;;;;;;3.03;1.60;;;;;;;;;;4917064;29;21016;-67
2023/08/25 03:21:04;;;;;;;4.70;2.00;;;;;;;;;;4916019;29;20484;-67
2023/08/25 03:23:31;;;;;;;2.27;1.30;;;;;;;;;;4916816;29;20978;-67
2023/08/25 03:25:59;;;;;;;2.97;2.20;;;;;;;;;;4916351;29;20456;-68
2023/08/25 03:28:26;;;;;;;2.63;1.73;;;;;;;;;;4916233;29;20452;-68
2023/08/25 03:30:54;;;;;;;3.03;1.60;;;;;;;;;;4917064;29;20455;-67
2023/08/25 03:33:21;;;;;;;3.20;1.40;;;;;;;;;;4915884;29;20456;-67
2023/08/25 03:35:48;;;;;;;4.50;1.27;;;;;;;;;;4916073;29;20445;-68
2023/08/25 03:38:15;;;;;;;2.43;1.50;;;;;;;;;;4913316;29;20505;-68
2023/08/25 03:40:43;;;;;;;2.83;1.60;;;;;;;;;;4915016;29;20480;-68
2023/08/25 03:43:11;;;;;;;2.63;1.33;;;;;;;;;;4916795;29;20917;-69
2023/08/25 03:45:38;;;;;;;2.60;1.30;;;;;;;;;;4914417;29;20491;-67
2023/08/25 03:48:06;;;;;;;2.57;1.30;;;;;;;;;;4916174;29;20448;-68
2023/08/25 03:50:33;;;;;;;3.90;1.70;;;;;;;;;;4916440;29;20475;-68
2023/08/25 03:53:00;;;;;;;2.80;1.60;;;;;;;;;;4915955;29;20445;-68
2023/08/25 03:55:27;;;;;;;2.90;1.90;;;;;;;;;;4914694;29;20472;-67
2023/08/25 03:57:54;;;;;;;1.90;1.13;;;;;;;;;;4916700;29;20868;-67
2023/08/25 04:00:23;;;;;;;2.87;1.83;;;;;;;;;;4915755;29;20888;-67
2023/08/25 04:02:50;;;;;;;3.57;1.50;;;;;;;;;;4914928;29;20453;-67
2023/08/25 04:05:17;;;;;;;4.90;1.57;;;;;;;;;;4916044;29;20452;-67
2023/08/25 04:07:45;;;;;;;3.40;2.03;;;;;;;;;;4915628;29;20465;-67
2023/08/25 04:10:12;;;;;;;2.93;1.90;;;;;;;;;;4915819;29;20904;-67
2023/08/25 04:12:39;;;;;;;2.80;1.50;;;;;;;;;;4915081;29;20467;-67
2023/08/25 04:15:06;;;;;;;2.43;1.23;;;;;;;;;;4914238;29;20476;-68
2023/08/25 04:17:35;;;;;;;3.80;1.53;;;;;;;;;;4914766;29;20844;-68
2023/08/25 04:20:03;;;;;;;3.50;1.73;;;;;;;;;;4915527;29;20488;-68
2023/08/25 04:22:30;;;;;;;2.93;2.03;;;;;;;;;;4914120;29;20468;-68
2023/08/25 04:24:57;;;;;;;6.07;1.80;;;;;;;;;;4915989;29;20448;-68
2023/08/25 04:27:24;;;;;;;4.20;2.10;;;;;;;;;;4914694;29;20452;-68
2023/08/25 04:29:51;;;;;;;5.30;3.00;;;;;;;;;;4914267;29;20484;-68
2023/08/25 04:32:18;;;;;;;3.43;1.67;;;;;;;;;;4915478;29;20445;-68
2023/08/25 04:34:47;;;;;;;4.10;1.90;;;;;;;;;;4913590;29;20453;-68
2023/08/25 04:37:14;;;;;;;5.60;1.73;;;;;;;;;;4912907;29;20460;-68
2023/08/25 04:39:41;;;;;;;3.00;1.70;;;;;;;;;;4913218;29;20481;-68
2023/08/25 04:42:08;;;;;;;7.00;2.57;;;;;;;;;;4914373;29;20460;-68
2023/08/25 04:44:35;;;;;;;3.90;1.80;;;;;;;;;;4911583;29;20464;-68
2023/08/25 04:47:05;;;;;;;2.87;1.73;;;;;;;;;;4914487;29;20453;-69
2023/08/25 04:49:32;;;;;;;5.93;2.07;;;;;;;;;;4904304;29;20559;-67
2023/08/25 04:52:00;;;;;;;5.33;2.17;;;;;;;;;;4913871;29;20839;-69
2023/08/25 04:54:27;;;;;;;4.13;1.67;;;;;;;;;;4913056;29;20468;-67
2023/08/25 04:56:54;;;;;;;12.13;2.03;;;;;;;;;;4914277;29;20449;-68
2023/08/25 04:59:21;;;;;;;3.23;1.67;;;;;;;;;;4915128;29;20468;-68
2023/08/25 05:01:49;;;;;;;2.77;1.70;;;;;;;;;;4913448;29;20484;-67
2023/08/25 05:04:16;;;;;;;4.53;1.50;;;;;;;;;;4914112;29;20523;-67
2023/08/25 05:06:43;;;;;;;2.43;1.67;;;;;;;;;;4901013;29;20460;-68
2023/08/25 05:09:11;;;;;;;3.13;1.70;;;;;;;;;;4914304;29;20457;-68
2023/08/25 05:11:39;;;;;;;4.00;1.50;;;;;;;;;;4913713;29;20522;-67
2023/08/25 05:14:06;;;;;;;2.20;1.20;;;;;;;;;;4912462;29;21352;-68
2023/08/25 05:16:33;;;;;;;2.70;1.47;;;;;;;;;;4914310;29;20445;-68
2023/08/25 05:19:00;;;;;;;3.63;1.80;;;;;;;;;;4907762;29;20487;-67
2023/08/25 05:21:27;;;;;;;4.50;1.50;;;;;;;;;;4914619;29;20874;-68
2023/08/25 05:24:16;;;;;;;3.00;1.53;;;;;;;;;;4914254;29;20448;-68
2023/08/25 05:26:47;;;;;;;3.93;1.93;;;;;;;;;;4905349;29;21225;-68
2023/08/25 05:29:14;;;;;;;4.17;1.70;;;;;;;;;;4914933;29;20989;-68
2023/08/25 05:31:41;;;;;;;3.00;1.87;;;;;;;;;;4907735;29;20496;-68
2023/08/25 05:34:10;;;;;;;4.37;1.73;;;;;;;;;;4912831;29;20492;-68
2023/08/25 05:36:37;;;;;;;3.30;1.60;;;;;;;;;;4909351;29;20907;-67
2023/08/25 05:39:04;;;;;;;2.70;1.57;;;;;;;;;;4911835;29;21077;-68
2023/08/25 05:41:31;;;;;;;2.53;1.40;;;;;;;;;;4913200;29;20563;-68
2023/08/25 05:44:00;;;;;;;4.53;1.43;;;;;;;;;;4913709;29;20452;-68
2023/08/25 05:46:27;;;;;;;4.10;1.87;;;;;;;;;;4913307;29;20461;-68
2023/08/25 05:48:54;;;;;;;2.60;1.60;;;;;;;;;;4914004;29;20505;-68
2023/08/25 05:51:21;;;;;;;2.80;1.60;;;;;;;;;;4914687;29;20455;-68
2023/08/25 05:53:48;;;;;;;2.80;1.70;;;;;;;;;;4908880;29;20564;-68
2023/08/25 05:56:15;;;;;;;4.03;1.77;;;;;;;;;;4908088;29;20468;-68
2023/08/25 05:58:42;;;;;;;3.33;1.60;;;;;;;;;;4912616;29;20490;-68
2023/08/25 06:01:11;;;;;;;2.23;1.20;;;;;;;;;;4913862;29;20499;-68
2023/08/25 06:03:39;;;;;;;2.93;2.63;;;;;;;;;;4913873;29;20459;-68
2023/08/25 06:06:06;;;;;;;6.60;2.00;;;;;;;;;;4903289;29;20990;-68
2023/08/25 06:08:34;;;;;;;2.50;1.37;;;;;;;;;;4914266;29;20465;-68
2023/08/25 06:11:01;;;;;;;3.07;2.03;;;;;;;;;;4913784;29;20467;-68
2023/08/25 06:13:28;;;;;;;3.40;1.50;;;;;;;;;;4911699;29;20476;-68
2023/08/25 06:15:55;;;;;;;2.70;1.80;;;;;;;;;;4913916;29;20460;-68
2023/08/25 06:18:24;;;;;;;4.20;1.50;;;;;;;;;;4913328;29;20827;-67
2023/08/25 06:20:51;;;;;;;3.17;1.57;;;;;;;;;;4913211;29;20527;-68
2023/08/25 06:23:19;;;;;;;2.50;1.70;;;;;;;;;;4909015;29;20504;-68
2023/08/25 06:25:47;;;;;;;5.10;1.60;;;;;;;;;;4910777;29;20469;-68
2023/08/25 06:28:14;;;;;;;3.70;1.83;;;;;;;;;;4917592;29;20507;-67
2023/08/25 06:30:42;;;;;;;4.13;1.57;;;;;;;;;;4915447;29;20448;-68
2023/08/25 06:33:10;;;;;;;3.43;1.70;;;;;;;;;;4917174;29;20510;-68
2023/08/25 06:35:39;;;;;;;3.17;1.50;;;;;;;;;;4911194;29;20532;-68
2023/08/25 06:38:06;;;;;;;3.03;1.70;;;;;;;;;;4913799;29;20555;-68
2023/08/25 06:40:35;;;;;;;2.63;1.63;;;;;;;;;;4913337;29;20491;-68
2023/08/25 06:43:02;;;;;;;5.93;2.30;;;;;;;;;;4910681;29;20522;-68
2023/08/25 06:45:30;;;;;;;2.57;1.80;;;;;;;;;;4915837;29;20535;-67
2023/08/25 06:47:57;;;;;;;2.97;1.70;;;;;;;;;;4909985;29;20456;-68
2023/08/25 06:50:25;;;;;;;2.47;1.50;;;;;;;;;;4912255;29;20484;-67
2023/08/25 06:52:55;;;;;;;2.20;1.70;;;;;;;;;;4907462;29;20453;-67
2023/08/25 06:55:25;;;;;;;2.30;1.40;;;;;;;;;;4917057;29;20538;-67
2023/08/25 06:57:52;;;;;;;3.73;1.80;;;;;;;;;;4916354;29;20490;-67
2023/08/25 07:00:19;;;;;;;2.73;1.50;;;;;;;;;;4915462;29;20869;-67
2023/08/25 07:02:46;;;;;;;3.20;1.97;;;;;;;;;;4916140;29;20931;-68
2023/08/25 07:05:14;;;;;;;6.80;2.03;;;;;;;;;;4915604;29;20468;-67
2023/08/25 07:07:42;;;;;;;3.13;1.50;;;;;;;;;;4916095;29;20467;-68
2023/08/25 07:10:11;;;;;;;2.10;1.13;;;;;;;;;;4915882;29;20465;-67
2023/08/25 07:12:39;;;;;;;3.00;2.10;;;;;;;;;;4917007;29;20456;-67
2023/08/25 07:15:07;;;;;;;3.03;1.90;;;;;;;;;;4913484;29;20543;-67
2023/08/25 07:17:34;;;;;;;3.07;1.63;;;;;;;;;;4916791;29;20855;-67
2023/08/25 07:20:02;;;;;;;2.20;1.40;;;;;;;;;;4916550;29;20479;-68
2023/08/25 07:22:29;;;;;;;2.50;1.80;;;;;;;;;;4916144;29;20488;-67
2023/08/25 07:24:58;;;;;;;3.50;2.10;;;;;;;;;;4916269;29;20496;-67
2023/08/25 07:27:26;;;;;;;2.47;1.40;;;;;;;;;;4916688;29;20488;-67
2023/08/25 07:29:55;;;;;;;3.13;1.90;;;;;;;;;;4915370;29;20491;-67
2023/08/25 07:32:22;;;;;;;3.27;1.83;;;;;;;;;;4917207;29;20897;-68
2023/08/25 07:34:49;;;;;;;3.43;2.13;;;;;;;;;;4916268;29;20445;-67
2023/08/25 07:37:16;;;;;;;3.43;1.93;;;;;;;;;;4915704;29;20472;-68
2023/08/25 07:39:43;;;;;;;2.30;1.50;;;;;;;;;;4917261;29;20472;-68
2023/08/25 07:42:11;;;;;;;3.67;1.80;;;;;;;;;;4916903;29;20556;-67
2023/08/25 07:44:39;;;;;;;4.10;1.73;;;;;;;;;;4916364;29;20437;-67
2023/08/25 07:47:07;;;;;;;3.40;1.70;;;;;;;;;;4915035;29;20465;-67
2023/08/25 07:49:34;;;;;;;2.97;1.50;;;;;;;;;;4906911;29;20493;-68
2023/08/25 07:52:01;;;;;;;4.50;1.83;;;;;;;;;;4899928;29;20447;-67
2023/08/25 07:54:29;;;;;;;3.87;2.20;;;;;;;;;;4915817;29;20455;-68
2023/08/25 07:56:56;;;;;;;2.60;1.53;;;;;;;;;;4916074;29;20472;-68
2023/08/25 07:59:23;;;;;;;3.70;1.73;;;;;;;;;;4916487;29;20476;-68
2023/08/25 08:01:52;;;;;;;3.23;1.43;;;;;;;;;;4915087;29;20958;-68
2023/08/25 08:04:19;;;;;;;3.20;1.90;;;;;;;;;;4909580;29;20492;-68
2023/08/25 08:06:46;;;;;;;4.00;2.13;;;;;;;;;;4915625;29;20456;-67
2023/08/25 08:09:13;;;;;;;5.73;2.00;;;;;;;;;;4915862;29;20477;-67
2023/08/25 08:11:40;;;;;;;3.07;1.97;;;;;;;;;;4915996;29;20458;-68
2023/08/25 08:14:07;;;;;;;3.97;2.17;;;;;;;;;;4970416;23;20860;-66
2023/08/25 08:16:34;;;;;;;3.40;1.80;;;;;;;;;;4915885;29;20908;-68
2023/08/25 08:19:05;;;;;;;2.60;1.60;;;;;;;;;;4915357;29;20480;-68
2023/08/25 08:21:32;;;;;;;3.80;2.07;;;;;;;;;;4915681;29;20912;-68
2023/08/25 08:24:00;;;;;;;3.03;1.80;;;;;;;;;;4904761;29;20469;-69
2023/08/25 08:26:27;;;;;;;5.07;2.00;;;;;;;;;;4914438;29;20458;-68
2023/08/25 08:28:54;;;;;;;3.43;1.63;;;;;;;;;;4915952;29;20544;-68
2023/08/25 08:31:21;;;;;;;2.97;1.60;;;;;;;;;;4915703;29;20467;-68
2023/08/25 08:33:49;;;;;;;3.00;2.27;;;;;;;;;;4915236;29;21035;-69
2023/08/25 08:36:19;;;;;;;3.03;1.90;;;;;;;;;;4916738;29;20444;-68
2023/08/25 08:38:46;;;;;;;5.30;2.50;;;;;;;;;;4915802;29;20491;-68
2023/08/25 08:41:16;;;;;;;3.00;1.80;;;;;;;;;;4915090;29;20487;-69
2023/08/25 08:43:45;;;;;;;4.03;1.80;;;;;;;;;;4903101;29;20486;-68
2023/08/25 08:46:15;;;;;;;2.90;1.70;;;;;;;;;;4915515;29;20472;-69
2023/08/25 08:48:43;;;;;;;2.90;2.00;;;;;;;;;;4912389;29;20528;-68
2023/08/25 08:51:10;;;;;;;3.20;1.83;;;;;;;;;;4916076;29;20445;-68
2023/08/25 08:53:39;;;;;;;3.63;1.90;;;;;;;;;;4915404;29;20524;-68
2023/08/25 08:56:07;;;;;;;3.77;2.13;;;;;;;;;;4915052;29;20927;-68
2023/08/25 08:58:34;;;;;;;4.47;2.63;;;;;;;;;;4914710;29;20473;-68
2023/08/25 09:01:03;;;;;;;3.10;1.97;;;;;;;;;;4914878;29;20452;-68
2023/08/25 09:03:33;;;;;;;3.40;2.50;;;;;;;;;;4914010;29;20532;-68
2023/08/25 09:06:03;;;;;;;2.87;1.37;;;;;;;;;;4915438;29;20449;-68
2023/08/25 09:08:30;;;;;;;3.70;2.20;;;;;;;;;;4915553;29;20448;-69
2023/08/25 09:11:02;;;;;;;3.30;2.00;;;;;;;;;;4915287;29;20449;-68
2023/08/25 09:13:31;;;;;;;4.53;2.30;;;;;;;;;;4908841;29;20551;-68
2023/08/25 09:15:58;;;;;;;4.77;2.97;;;;;;;;;;4914784;29;20456;-68
2023/08/25 09:18:33;;;;;;;3.67;2.37;;;;;;;;;;4912005;29;20456;-68
2023/08/25 09:21:01;;;;;;;4.43;2.37;;;;;;;;;;4911976;29;20448;-68
2023/08/25 09:23:28;;;;;;;5.80;3.03;;;;;;;;;;4914274;29;20469;-68
2023/08/25 09:25:56;;;;;;;4.57;2.70;;;;;;;;;;4901527;29;20480;-69
2023/08/25 09:28:27;;;;;;;3.23;2.10;;;;;;;;;;4915255;29;20445;-68
2023/08/25 09:30:54;;;;;;;2.93;1.90;;;;;;;;;;4915685;29;20449;-67
2023/08/25 09:33:21;;;;;;;4.43;2.40;;;;;;;;;;4910614;29;20511;-68
2023/08/25 09:35:48;;;;;;;3.80;2.20;;;;;;;;;;4915663;29;20480;-69
2023/08/25 09:38:23;;;;;;;3.13;1.70;;;;;;;;;;4914369;29;20487;-68
2023/08/25 09:40:50;;;;;;;2.80;2.00;;;;;;;;;;4902533;29;20463;-68
2023/08/25 09:43:17;;;;;;;4.50;2.10;;;;;;;;;;4914202;29;20489;-68
2023/08/25 09:45:46;;;;;;;4.17;2.60;;;;;;;;;;4903027;29;20540;-68
2023/08/25 09:48:13;;;;;;;4.80;2.90;;;;;;;;;;4909409;29;20960;-68
2023/08/25 09:50:42;;;;;;;3.97;2.53;;;;;;;;;;4915100;29;20452;-68
2023/08/25 09:53:10;;;;;;;3.70;1.77;;;;;;;;;;4915545;29;20440;-67
2023/08/25 09:55:37;;;;;;;6.13;2.33;;;;;;;;;;4906108;29;21043;-68
2023/08/25 09:58:06;;;;;;;4.00;1.90;;;;;;;;;;4911350;29;20476;-67
2023/08/25 10:00:34;;;;;;;3.13;1.80;;;;;;;;;;4917043;29;20941;-68
2023/08/25 10:03:03;;;;;;;2.23;1.60;;;;;;;;;;4917376;29;20477;-68
2023/08/25 10:05:30;;;;;;;3.67;1.73;;;;;;;;;;4913397;29;20477;-68
2023/08/25 10:07:58;;;;;;;4.03;2.37;;;;;;;;;;4911616;29;20448;-68
2023/08/25 10:10:26;;;;;;;2.70;1.50;;;;;;;;;;4918749;29;20873;-67
2023/08/25 10:12:55;;;;;;;4.07;2.17;;;;;;;;;;4917548;29;20480;-68
2023/08/25 10:15:23;;;;;;;2.70;1.70;;;;;;;;;;4906791;29;20879;-68
2023/08/25 10:17:50;;;;;;;3.53;2.00;;;;;;;;;;4917163;29;20498;-68
2023/08/25 10:20:23;;;;;;;2.80;1.57;;;;;;;;;;4909206;29;20485;-68
2023/08/25 10:22:50;;;;;;;3.27;1.87;;;;;;;;;;4905619;29;20999;-68
2023/08/25 10:25:19;;;;;;;4.67;1.50;;;;;;;;;;4919074;29;20870;-69
2023/08/25 10:27:46;;;;;;;4.07;1.77;;;;;;;;;;4917974;29;20448;-68
2023/08/25 10:30:14;;;;;;;4.80;2.00;;;;;;;;;;4917786;29;20464;-66
2023/08/25 10:32:50;;;;;;;4.00;2.30;;;;;;;;;;4914939;29;20828;-68
2023/08/25 10:35:37;;;;;;;2.97;1.43;;;;;;;;;;4907952;29;20449;-68
2023/08/25 10:38:05;;;;;;;2.67;1.73;;;;;;;;;;4905995;29;21002;-67
2023/08/25 10:40:41;;;;;;;2.63;2.00;;;;;;;;;;4916898;29;20496;-68
2023/08/25 10:43:08;;;;;;;3.67;1.50;;;;;;;;;;4907451;29;20492;-68
2023/08/25 10:45:36;;;;;;;3.30;2.10;;;;;;;;;;4917710;29;20453;-67
2023/08/25 10:48:03;;;;;;;4.03;1.80;;;;;;;;;;4915543;29;20475;-67
2023/08/25 10:50:31;;;;;;;2.87;1.73;;;;;;;;;;4913400;29;20471;-67
2023/08/25 10:52:59;;;;;;;2.50;1.50;;;;;;;;;;4915921;29;20955;-68
2023/08/25 10:55:28;;;;;;;3.40;1.93;;;;;;;;;;4914287;29;20492;-68
2023/08/25 10:58:01;;;;;;;2.90;1.60;;;;;;;;;;4911299;29;20528;-68
2023/08/25 11:00:30;;;;;;;2.73;1.60;;;;;;;;;;4915763;29;20456;-68
2023/08/25 11:02:57;;;;;;;2.77;1.57;;;;;;;;;;4917149;29;21006;-68
2023/08/25 11:05:45;;;;;;;2.60;1.87;;;;;;;;;;4905758;29;20472;-68
2023/08/25 11:08:25;;;;;;;4.10;2.30;;;;;;;;;;4906909;29;20999;-67
2023/08/25 11:11:07;;;;;;;3.53;1.93;;;;;;;;;;4916278;29;20448;-67
2023/08/25 11:13:35;;;;;;;2.57;1.60;;;;;;;;;;4917325;29;20456;-67
2023/08/25 11:16:06;;;;;;;2.50;1.63;;;;;;;;;;4917804;29;20445;-69
2023/08/25 11:18:33;;;;;;;3.53;1.93;;;;;;;;;;4916950;29;20831;-68
2023/08/25 11:21:02;;;;;;;3.53;1.70;;;;;;;;;;4918169;29;20452;-67
2023/08/25 11:23:35;;;;;;;3.10;1.90;;;;;;;;;;4917720;29;20604;-69
2023/08/25 11:26:02;;;;;;;2.73;1.93;;;;;;;;;;4918273;29;20453;-68
2023/08/25 11:28:30;;;;;;;7.33;2.20;;;;;;;;;;4916960;29;20461;-68
2023/08/25 11:30:58;;;;;;;2.87;2.03;;;;;;;;;;4917529;29;20449;-68
2023/08/25 11:33:26;;;;;;;2.93;1.80;;;;;;;;;;4917628;29;20441;-67
2023/08/25 11:35:53;;;;;;;3.17;1.60;;;;;;;;;;4918044;29;20455;-68
2023/08/25 11:38:22;;;;;;;4.33;1.83;;;;;;;;;;4917333;29;20508;-68
2023/08/25 11:40:49;;;;;;;4.70;2.43;;;;;;;;;;4917072;29;20994;-68
2023/08/25 11:43:16;;;;;;;3.13;2.00;;;;;;;;;;4917627;29;20491;-68
2023/08/25 11:45:45;;;;;;;3.60;1.90;;;;;;;;;;4917165;29;20456;-67
2023/08/25 11:48:14;;;;;;;2.87;1.73;;;;;;;;;;4917056;29;20509;-67
2023/08/25 11:50:41;;;;;;;2.30;1.53;;;;;;;;;;4917193;29;20456;-69
2023/08/25 11:53:08;;;;;;;3.30;2.10;;;;;;;;;;4917134;29;20991;-69
2023/08/25 11:55:37;;;;;;;3.67;2.23;;;;;;;;;;4917303;29;20831;-68
2023/08/25 11:58:08;;;;;;;5.30;2.30;;;;;;;;;;4916841;29;20460;-67
2023/08/25 12:00:38;;;;;;;3.63;2.20;;;;;;;;;;4917372;29;20457;-69
2023/08/25 12:03:06;;;;;;;2.93;1.80;;;;;;;;;;4917115;29;20480;-66
2023/08/25 12:05:35;;;;;;;2.83;1.43;;;;;;;;;;4917159;29;20480;-69
2023/08/25 12:08:02;;;;;;;2.57;1.70;;;;;;;;;;4917190;29;20452;-68
2023/08/25 12:10:30;;;;;;;4.23;2.17;;;;;;;;;;4917033;29;20465;-67
2023/08/25 12:12:58;;;;;;;2.80;1.90;;;;;;;;;;4916562;29;20464;-67
2023/08/25 12:15:25;;;;;;;2.57;1.67;;;;;;;;;;4916321;29;20564;-67
2023/08/25 12:17:53;;;;;;;3.60;2.30;;;;;;;;;;4917009;29;20445;-68
2023/08/25 12:20:20;;;;;;;3.07;2.33;;;;;;;;;;4916606;29;20979;-68
2023/08/25 12:22:51;;;;;;;4.00;2.30;;;;;;;;;;4916061;29;20575;-68
2023/08/25 12:25:19;;;;;;;2.70;1.67;;;;;;;;;;4915733;29;20990;-69
2023/08/25 12:27:46;;;;;;;2.77;1.70;;;;;;;;;;4916191;29;20527;-68
2023/08/25 12:30:15;;;;;;;2.83;2.13;;;;;;;;;;4916513;29;20468;-67
2023/08/25 12:32:42;;;;;;;2.80;2.03;;;;;;;;;;4917159;29;20504;-67
2023/08/25 12:35:09;;;;;;;4.43;2.70;;;;;;;;;;4914608;29;20459;-69
2023/08/25 12:37:37;;;;;;;3.53;2.60;;;;;;;;;;4916531;29;20456;-68
2023/08/25 12:40:05;;;;;;;2.73;2.13;;;;;;;;;;4915834;29;20475;-68
2023/08/25 12:42:32;;;;;;;4.67;2.50;;;;;;;;;;4916823;29;20496;-69
2023/08/25 12:44:59;;;;;;;2.83;2.30;;;;;;;;;;4916910;29;20464;-68
2023/08/25 12:47:28;;;;;;;4.83;2.27;;;;;;;;;;4916343;29;20452;-68
2023/08/25 12:49:55;;;;;;;3.33;2.50;;;;;;;;;;4914547;29;20479;-68
2023/08/25 12:52:23;;;;;;;3.93;2.23;;;;;;;;;;4917091;29;20467;-68
2023/08/25 12:54:50;;;;;;;4.00;2.50;;;;;;;;;;4916573;29;20454;-68
2023/08/25 12:57:17;;;;;;;3.00;2.10;;;;;;;;;;4915823;29;20457;-67
2023/08/25 12:59:45;;;;;;;4.13;2.30;;;;;;;;;;4916258;29;20475;-68
2023/08/25 13:02:12;;;;;;;4.03;2.30;;;;;;;;;;4916184;29;20444;-68
2023/08/25 13:04:41;;;;;;;4.00;2.80;;;;;;;;;;4916103;29;20453;-68
2023/08/25 13:07:08;;;;;;;4.47;2.70;;;;;;;;;;4916325;29;20459;-67
2023/08/25 13:09:35;;;;;;;3.77;2.30;;;;;;;;;;4915162;29;20507;-68
2023/08/25 13:12:02;;;;;;;3.70;2.40;;;;;;;;;;4916083;29;20483;-66
2023/08/25 13:14:29;;;;;;;3.17;2.40;;;;;;;;;;4915763;29;20539;-68
2023/08/25 13:16:57;;;;;;;4.70;2.73;;;;;;;;;;4915010;29;20500;-69
2023/08/25 13:19:24;;;;;;;2.60;2.20;;;;;;;;;;4914667;29;20464;-69
2023/08/25 13:21:52;;;;;;;3.83;1.87;;;;;;;;;;4915611;29;20460;-66
2023/08/25 13:24:19;;;;;;;3.40;2.40;;;;;;;;;;4915761;29;20568;-69
2023/08/25 13:26:47;;;;;;;2.77;1.90;;;;;;;;;;4915786;29;20459;-68
2023/08/25 13:29:14;;;;;;;3.27;2.20;;;;;;;;;;4915354;29;20468;-69
2023/08/25 13:31:41;;;;;;;3.63;2.10;;;;;;;;;;4915602;29;20452;-69
2023/08/25 13:34:08;;;;;;;3.40;2.33;;;;;;;;;;4914507;29;20910;-69
2023/08/25 13:36:36;;;;;;;3.17;2.30;;;;;;;;;;4915535;29;20463;-69
2023/08/25 13:39:05;;;;;;;3.70;2.30;;;;;;;;;;4915323;29;20523;-68
2023/08/25 13:41:32;;;;;;;2.90;2.10;;;;;;;;;;4911460;29;20452;-68
2023/08/25 13:43:59;;;;;;;5.63;2.60;;;;;;;;;;4915608;29;20488;-68
2023/08/25 13:46:26;;;;;;;3.33;2.53;;;;;;;;;;4915307;29;20585;-69
2023/08/25 13:48:53;;;;;;;3.57;2.00;;;;;;;;;;4914559;29;20479;-68
2023/08/25 13:51:20;;;;;;;2.97;2.27;;;;;;;;;;4915655;29;20470;-69
2023/08/25 13:53:47;;;;;;;3.90;2.23;;;;;;;;;;4914367;29;20976;-70
2023/08/25 13:56:16;;;;;;;5.87;2.83;;;;;;;;;;4915556;29;20452;-68
2023/08/25 13:58:43;;;;;;;3.90;2.50;;;;;;;;;;4915600;29;20858;-69
2023/08/25 14:01:10;;;;;;;2.80;2.27;;;;;;;;;;4915196;29;20452;-68
2023/08/25 14:03:37;;;;;;;4.10;2.77;;;;;;;;;;4914705;29;20475;-68
2023/08/25 14:06:04;;;;;;;3.63;2.60;;;;;;;;;;4915807;29;20459;-68
2023/08/25 14:08:31;;;;;;;2.67;2.10;;;;;;;;;;4915780;29;20464;-70
2023/08/25 14:10:58;;;;;;;3.33;2.47;;;;;;;;;;4915055;29;20827;-68
2023/08/25 14:13:27;;;;;;;4.43;2.07;;;;;;;;;;4913958;29;20464;-68
2023/08/25 14:15:54;;;;;;;2.90;2.27;;;;;;;;;;4915528;29;20455;-69
2023/08/25 14:18:21;;;;;;;3.33;2.40;;;;;;;;;;4915084;29;20436;-68
2023/08/25 14:20:48;;;;;;;3.73;2.27;;;;;;;;;;4914979;29;20440;-68
2023/08/25 14:23:16;;;;;;;4.67;2.50;;;;;;;;;;4915728;29;20523;-70
2023/08/25 14:25:43;;;;;;;3.30;2.77;;;;;;;;;;4915773;29;20459;-70
2023/08/25 14:28:10;;;;;;;3.10;1.97;;;;;;;;;;4915925;29;20926;-68
2023/08/25 14:30:38;;;;;;;4.23;2.80;;;;;;;;;;4915534;29;20448;-68
2023/08/25 14:33:06;;;;;;;4.57;2.23;;;;;;;;;;4915637;29;20452;-69
2023/08/25 14:35:33;;;;;;;4.23;2.80;;;;;;;;;;4917578;29;20455;-68
2023/08/25 14:38:01;;;;;;;4.83;2.00;;;;;;;;;;4917991;29;20463;-69
2023/08/25 14:40:28;;;;;;;4.07;2.83;;;;;;;;;;4919194;29;20622;-69
2023/08/25 14:42:55;;;;;;;3.27;2.50;;;;;;;;;;4918719;29;20448;-69
2023/08/25 14:45:22;;;;;;;2.50;2.00;;;;;;;;;;4918460;29;20871;-69
2023/08/25 14:47:51;;;;;;;3.17;1.90;;;;;;;;;;4921078;29;20459;-68
2023/08/25 14:50:18;;;;;;;3.70;2.30;;;;;;;;;;4925283;29;20456;-69